Nearby METAR Reports

 

KIAG - Niagara Falls, New York, USA
Distance from station: W 12mi, 20km
Updated: 09/20/2018 1:53pm
Clear
Clear
 Wind from ENE
Wind: ENE 6 mph , 9 km/h
Temperature: 70°F , 21°C
Dew Point: 59°F , 15°C
Humidity: 69%
Barometer: 1020.7 hPa
Clouds: Clear
Visibility: 10 miles , 16 km
2018/09/20 17:53 KIAG 201753Z 07005KT 10SM CLR 21/15 A3014 RMK AO2 SLP207 T02060150 10217 20117 56016 $
KBUF - Buffalo/Cheektow, New York, USA
Distance from station: S 13mi, 21km
Updated: 09/20/2018 1:54pm
Mostly cloudy
Mostly cloudy
 Wind from N
Wind: N 7 mph , 11 km/h
Temperature: 72°F , 22°C
Dew Point: 63°F , 17°C
Humidity: 73%
Barometer: 1020.7 hPa
Clouds: Mostly cloudy
Visibility: 10 miles , 16 km
Cloud details: Partly cloudy 2200 ft
Mostly cloudy 12000 ft
Mostly cloudy 18000 ft
Mostly cloudy 26000 ft
2018/09/20 17:54 KBUF 201754Z 01006KT 10SM SCT022 BKN120 BKN180 BKN260 22/17 A3014 RMK AO2 SLP205 T02170167 10228 20150 56016 $
 
KROC - Rochester, New York, USA
Distance from station: E 51mi, 82km
Updated: 09/20/2018 1:54pm
Overcast
Overcast
 Wind from SSE
Wind: SSE 3 mph , 6 km/h
Temperature: 70°F , 21°C
Dew Point: 57°F , 14°C
Humidity: 64%
Barometer: 1021.7 hPa
Clouds: Overcast
Visibility: 10 miles , 16 km
Cloud details: Few Clouds 4000 ft
Mostly cloudy 13000 ft
Overcast 24000 ft
2018/09/20 17:54 KROC 201754Z 16003KT 10SM FEW040 BKN130 OVC240 21/14 A3017 RMK AO2 SLP220 T02060139 10211 20139 56015
CYSN - St. Catharines A, Ontario, Canada
Distance from station: WNW 25mi, 40km
Updated: 09/20/2018 1:00pm
NOT Current
Overcast
Overcast
 Wind from NE
Wind: NE 7 mph , 11 km/h
Temperature: 68°F , 20°C
Dew Point: 61°F , 16°C
Humidity: 78%
Barometer: 1021 hPa
Clouds: Overcast
Visibility: 15 miles , 24 km
Cloud details: Few Clouds 2500 ft
Mostly cloudy 10000 ft
Overcast 15000 ft
2018/09/20 17:00 CYSN 201700Z 04006KT 020V080 15SM FEW025 BKN100 OVC150 20/16 A3015 RMK SC2AC4AC2 SLP210 DENSITY ALT 800FT
 
KOLE - Olean, New York, USA
Distance from station: SSE 63mi, 102km
Updated: 09/20/2018 2:15pm
Clear
Clear
 Wind from S
Wind: S 5 mph , 7 km/h
Temperature: 68°F , 20°C
Dew Point: 63°F , 17°C
Humidity: 83%
Barometer: 1022.7 hPa
Clouds: Clear
Visibility: 10 miles , 16 km
2018/09/20 18:15 KOLE 201815Z AUTO 18004KT 10SM CLR 20/17 A3020 RMK AO2
KJHW - Jamestown, New York, USA
Distance from station: SSW 74mi, 119km
Updated: 09/20/2018 1:56pm
Clear
Clear
 Wind from SSE
Wind: SSE 5 mph , 7 km/h
Temperature: 72°F , 22°C
Dew Point: 63°F , 17°C
Humidity: 73%
Barometer: 1022 hPa
Clouds: Clear
Visibility: 10 miles , 16 km
2018/09/20 17:56 KJHW 201756Z AUTO 16004KT 10SM CLR 22/17 A3018 RMK AO2 SLP217 6//// T02220172 10222 20133 56009 PNO $
 
CWWZ - Port Weller (mar, Ontario, Canada
Distance from station: WNW 28mi, 45km
Updated: 09/20/2018 1:00pm
NOT Current

 Wind from ENE
Wind: ENE 10 mph , 17 km/h
Temperature: 66°F , 19°C
Dew Point: 59°F , 15°C
Humidity: 78%
2018/09/20 17:00 CWWZ 201700Z AUTO 07009KT 19/15 RMK AO1 SLP211 T01920148 56010
CWPC - Port Colborne(Au, Ontario, Canada
Distance from station: WSW 33mi, 53km
Updated: 09/20/2018 1:00pm
NOT Current

 Wind from SE
Wind: SE 6 mph , 9 km/h
Temperature: 68°F , 20°C
Dew Point: 61°F , 16°C
Humidity: 78%
2018/09/20 17:00 CWPC 201700Z AUTO 14005KT 20/16 RMK AO1 SLP210 T01960159 58010
 
CXVN - Vineland (au8), Ontario, Canada
Distance from station: W 36mi, 58km
Updated: 09/20/2018 1:00pm
NOT Current

 Wind from NE
Wind: NE 8 mph , 13 km/h
Temperature: 66°F , 19°C
Dew Point: 57°F , 14°C
Humidity: 73%
2018/09/20 17:00 CXVN 201700Z AUTO 04007KT 19/14 RMK AO1 SLP200 T01940144 56012
CYTZ - Toronto Il Vor, Ontario, Canada
Distance from station: NW 50mi, 81km
Updated: 09/20/2018 1:00pm
NOT Current
Few Clouds
Few Clouds
 Wind from E
Wind: E 16 mph , 26 km/h, Gust: 23 mph , 37 km/h
Temperature: 66°F , 19°C
Dew Point: 57°F , 14°C
Humidity: 73%
Barometer: 1021.3 hPa
Clouds: Few Clouds
Visibility: 9 miles , 14 km
Cloud details: Few Clouds 12000 ft
2018/09/20 17:00 CYTZ 201700Z AUTO 08014G20KT 9SM FEW120 19/14 A3016 RMK SLP215 DENSITY ALT 400FT
 
CXTO - Toronto City, Ontario, Canada
Distance from station: NW 52mi, 84km
Updated: 09/20/2018 1:00pm
NOT Current

 
Temperature: 66°F , 19°C
Dew Point: 54°F , 12°C
Humidity: 64%
2018/09/20 17:00 CXTO 201700Z AUTO 19/12 RMK AO1 SLP216 T01860120 58003
KDKK - Dunkirk, New York, USA
Distance from station: SW 52mi, 84km
Updated: 09/20/2018 1:53pm
Clear
Clear
 Wind from N
Wind: N 8 mph , 13 km/h
Temperature: 72°F , 22°C
Dew Point: 64°F , 18°C
Humidity: 78%
Barometer: 1020.3 hPa
Clouds: Clear
Visibility: 10 miles , 16 km
2018/09/20 17:53 KDKK 201753Z AUTO 01007KT 10SM CLR 22/18 A3013 RMK AO2 SLP201 6//// T02220183 10233 20144 56014 PNO $
 
CYOO - Oshawa, Ontario, Canada
Distance from station: N 56mi, 90km
Updated: 09/20/2018 1:31pm
Overcast
Overcast
 Wind from ESE
Wind: ESE 13 mph , 20 km/h
Temperature: 66°F , 19°C
Dew Point: 55°F , 13°C
Humidity: 68%
Barometer: 1022 hPa
Clouds: Overcast
Visibility: 9 miles , 14 km
Cloud details: Partly cloudy 2300 ft
Overcast 9000 ft
2018/09/20 17:31 CYOO 201731Z AUTO 11011KT 9SM SCT023 OVC090 19/13 A3018 RMK SLP221 DENSITY ALT 600FT
CWWB - Burlington Piers, Ontario, Canada
Distance from station: WNW 56mi, 91km
Updated: 09/20/2018 1:00pm
NOT Current

 Wind from ENE
Wind: ENE 14 mph , 22 km/h
Temperature: 64°F , 18°C
Dew Point: 57°F , 14°C
Humidity: 78%
2018/09/20 17:00 CWWB 201700Z AUTO 07012KT 18/14 RMK AO1 SLP207 T01750138 58010
 
CYYZ - Toronto/Pearson, Ontario, Canada
Distance from station: NW 60mi, 96km
Updated: 09/20/2018 1:00pm
NOT Current
Overcast
Overcast
 Wind from ESE
Wind: ESE 9 mph , 15 km/h, Gust: 17 mph , 28 km/h
Temperature: 66°F , 19°C
Dew Point: 55°F , 13°C
Humidity: 68%
Barometer: 1021.7 hPa
Clouds: Overcast
Visibility: 15 miles , 24 km
Cloud details: Few Clouds 2200 ft
Overcast 11000 ft
2018/09/20 17:00 CYYZ 201700Z 12008G15KT 080V150 15SM FEW022 OVC110 19/13 A3017 RMK CU2AC6 SLP217 DENSITY ALT 900FT
CYKZ - Toronto Buttonvi, Ontario, Canada
Distance from station: NW 62mi, 99km
Updated: 09/20/2018 1:00pm
NOT Current
Overcast
Overcast
 Wind from SE
Wind: SE 13 mph , 20 km/h
Temperature: 64°F , 18°C
Dew Point: 57°F , 14°C
Humidity: 78%
Barometer: 1022 hPa
Clouds: Overcast
Visibility: 15 miles , 24 km
Cloud details: Mostly cloudy 1800 ft
Overcast 7500 ft
Overcast 20000 ft
2018/09/20 17:00 CYKZ 201700Z 13011KT 15SM BKN018 OVC075 OVC200 18/14 A3018 RMK SC6AC2CI1 CI TR SLP222 DENSITY ALT 900FT
 
CXHM - Hamilton Rbg Cs, Ontario, Canada
Distance from station: W 62mi, 100km
Updated: 09/20/2018 1:00pm
NOT Current

 Wind from E
Wind: E 3 mph , 6 km/h
Temperature: 66°F , 19°C
Dew Point: 57°F , 14°C
Humidity: 73%
2018/09/20 17:00 CXHM 201700Z AUTO 09003KT 19/14 RMK AO1 SLP203 T01900135 58009
KDSV - Dansville, New York, USA
Distance from station: SE 62mi, 100km
Updated: 09/20/2018 1:54pm
Overcast
Overcast
 Wind from SSE
Wind: SSE 7 mph , 11 km/h
Temperature: 72°F , 22°C
Dew Point: 61°F , 16°C
Humidity: 69%
Barometer: 1021.3 hPa
Clouds: Overcast
Visibility: 10 miles , 16 km
Cloud details: Overcast 2500 ft
2018/09/20 17:54 KDSV 201754Z AUTO 15006KT 10SM OVC025 22/16 A3016 RMK AO2 SLP220 T02170161 10222 20144 58018
 
CYHM - Hamilton Airport, Ontario, Canada
Distance from station: W 63mi, 101km
Updated: 09/20/2018 1:00pm
NOT Current
Mostly cloudy
Mostly cloudy
 Wind from NE
Wind: NE 12 mph , 19 km/h
Temperature: 64°F , 18°C
Dew Point: 59°F , 15°C
Humidity: 83%
Barometer: 1020.7 hPa
Clouds: Mostly cloudy
Visibility: 15 miles , 24 km
Cloud details: Few Clouds 1500 ft
Few Clouds 11000 ft
Mostly cloudy 13000 ft
Mostly cloudy 18000 ft
Mostly cloudy 24000 ft
2018/09/20 17:00 CYHM 201700Z 05010KT 15SM FEW015 FEW110 BKN130 BKN180 BKN240 18/15 A3014 RMK CU1AC2AC3AS1CI1 CU TR PRESFR SLP210 DENSITY ALT 1100FT
CWNC - Cobourg (mars), Ontario, Canada
Distance from station: NNE 63mi, 102km
Updated: 09/20/2018 1:00pm
NOT Current

 Wind from ESE
Wind: ESE 8 mph , 13 km/h
Temperature: 66°F , 19°C
Dew Point: 55°F , 13°C
Humidity: 68%
2018/09/20 17:00 CWNC 201700Z AUTO 12007KT 19/13 RMK AO1 SLP215 T01860127 58010